Aérodrome :
LOGIN :

S'inscrire | Disclaimer

   EN    FR    IT 

 










Légende :    VFR   VFR Marginal   IFR   IFR Intensif   IFR Très Intensif
Visi : 
Plafond : 
>= 8 km
>= 3000ft
5 à 8 km
1000 à 3000 ft
1500m à 5 km
500 à 1000 ft
800 à 1500m
200 à 500 ft
< 800m
< 200 ft
Symboles :   Orages  Brouillard  Fortes neiges  Fortes précipitations  Vent > 20 kt
SIGMETs :   Divers  Orages  Givrage  Turbulence  Onde Orograph.  Cendres Volcan.







- Altitude de l'aérodrome : 5600 ft
- Code IATA : SMV


LSZS - Samedan

DERNIER METAR :
  • 170920Z 03004KT 320V090 9999 BKN060 15/04 Q1021 RMK H

METARs EXPIRÉS :
  • 170850Z VRB02KT 9999 BKN060 16/03 Q1021 RMK G
  • 170820Z 30004KT 270V010 9999 BKN060 14/03 Q1021 RMK F
  • 170750Z VRB02KT 9999 BKN060 14/04 Q1021 RMK E
  • 170720Z VRB02KT 9999 BKN060 14/04 Q1021 RMK D
  • 170650Z 15001KT 9999 BKN060 13/08 Q1020 RMK C

TAF TAF LSZS
Valide du 17 à 09h jusqu'au 17 à 18h UTC


170825Z 1709/1718 VRB03KT 9999 SCT060 TX19/1714Z
TEMPO 1710/1718 35010KT
PROB30
TEMPO 1712/1718 03015G28KT 4000 TSRA SCT040CB
ATIS : +41 81 834 93 24
Pas de NOTAMs connus pour ce terrain.



MET'MAP, la Météo Aéronautique d'un coup d'oeil ! - Copyright ORBIFLY Décembre 2007 - Disclaimer

ORBIFLY MET'MAP TEAM :

Programmation & Développement : Alexandra Zaïnal
Conception & Développement : Baudouin d'Aumeries
Co-Programmation & Développement : Marc-Olivier Méhu
Soutien technique & logistique : Manuel Goepfert

Contact : metmap@orbifly.com




SOURCES & CREDITS :

   NOAA